Time;durP1;ratioP1;P1;durP2;ratioP2;P2;SDS_P1;SDS_P2;PMS_P1;PMS_P2;Temp;Humidity;BMP_temperature;BMP_pressure;BME280_temperature;BME280_humidity;BME280_pressure;Samples;Min_cycle;Max_cycle;Signal;HPM_P1;HPM_P2
2023/08/14 00:00:47;;;;;;;6.25;5.85;;;;;;;15.18;100.00;100980.59;6173922;23;20115;-68
2023/08/14 00:03:15;;;;;;;5.80;5.50;;;;;;;15.21;100.00;100979.53;6202638;23;20068;-67
2023/08/14 00:05:41;;;;;;;5.90;5.60;;;;;;;15.40;100.00;101038.19;6148677;23;20091;-67
2023/08/14 00:08:08;;;;;;;6.25;5.75;;;;;;;15.20;100.00;101012.22;6178938;23;20079;-67
2023/08/14 00:10:35;;;;;;;5.88;5.47;;;;;;;14.27;100.00;100874.72;6199950;23;20576;-67
2023/08/14 00:13:02;;;;;;;5.90;5.50;;;;;;;15.30;100.00;101026.53;6171691;23;20017;-67
2023/08/14 00:15:28;;;;;;;5.75;5.43;;;;;;;15.32;100.00;101037.84;6200933;23;20094;-67
2023/08/14 00:17:55;;;;;;;6.13;5.72;;;;;;;15.15;100.00;101025.72;6176424;23;20397;-70
2023/08/14 00:20:22;;;;;;;6.00;5.50;;;;;;;15.22;100.00;101044.69;6204023;23;20016;-68
2023/08/14 00:22:48;;;;;;;5.75;5.35;;;;;;;15.22;100.00;101052.63;6200961;23;20020;-68
2023/08/14 00:25:15;;;;;;;5.80;5.40;;;;;;;15.14;100.00;101042.56;6201360;23;20091;-68
2023/08/14 00:27:41;;;;;;;5.97;5.55;;;;;;;15.05;100.00;101024.66;6166116;23;20198;-69
2023/08/14 00:30:08;;;;;;;7.13;5.82;;;;;;;15.01;100.00;101024.00;6176198;23;20601;-67
2023/08/14 00:32:34;;;;;;;6.07;5.65;;;;;;;14.79;100.00;101018.41;6201026;23;20091;-67
2023/08/14 00:35:02;;;;;;;5.93;5.63;;;;;;;13.77;100.00;100861.16;6203388;23;20098;-66
2023/08/14 00:37:49;;;;;;;5.97;5.57;;;;;;;14.58;100.00;101010.09;6175848;23;20110;-66
2023/08/14 00:40:16;;;;;;;5.60;5.28;;;;;;;13.62;100.00;100878.81;6203155;23;20032;-67
2023/08/14 00:42:47;;;;;;;5.88;5.47;;;;;;;13.91;100.00;100916.56;6171809;23;20151;-66
2023/08/14 00:45:14;;;;;;;5.70;5.40;;;;;;;14.40;100.00;100998.88;6175749;23;20017;-68
2023/08/14 00:47:45;;;;;;;5.90;5.60;;;;;;;14.72;100.00;101053.16;6201786;23;20136;-67
2023/08/14 00:50:13;;;;;;;5.80;5.50;;;;;;;13.68;100.00;100886.31;6176395;23;20087;-68
2023/08/14 00:52:46;;;;;;;6.07;5.57;;;;;;;14.67;100.00;101052.63;6196023;23;20500;-68
2023/08/14 00:55:19;;;;;;;5.95;5.55;;;;;;;14.46;100.00;101007.25;6200593;23;20574;-68
2023/08/14 00:57:46;;;;;;;6.35;5.88;;;;;;;14.72;100.00;101060.25;6198127;23;20039;-68
2023/08/14 01:00:13;;;;;;;6.15;5.80;;;;;;;14.74;100.00;101063.63;6196970;23;20032;-67
2023/08/14 01:02:42;;;;;;;6.03;5.63;;;;;;;14.24;100.00;100981.34;6204400;23;20012;-67
2023/08/14 01:05:08;;;;;;;5.93;5.53;;;;;;;14.69;100.00;101057.78;6207465;23;20389;-67
2023/08/14 01:07:35;;;;;;;5.70;5.38;;;;;;;13.57;100.00;100868.56;6201824;23;20051;-67
2023/08/14 01:10:03;;;;;;;6.20;5.70;;;;;;;13.74;100.00;100900.94;6178773;23;20079;-68
2023/08/14 01:13:07;;;;;;;6.05;5.68;;;;;;;14.73;100.00;101069.84;6189978;23;20000;-68
2023/08/14 01:15:42;;;;;;;6.57;5.45;;;;;;;14.46;100.00;101036.28;6174967;23;20084;-68
2023/08/14 01:18:12;;;;;;;7.85;5.72;;;;;;;14.56;100.00;101057.72;6181154;23;20050;-66
2023/08/14 01:20:40;;;;;;;8.82;5.70;;;;;;;14.54;100.00;101072.78;6206375;23;20008;-68
2023/08/14 01:23:22;;;;;;;7.75;5.63;;;;;;;14.51;100.00;101051.84;6205226;23;20020;-69
2023/08/14 01:25:51;;;;;;;6.22;5.72;;;;;;;14.59;100.00;101072.53;6171204;23;20088;-68
2023/08/14 01:28:17;;;;;;;5.57;5.28;;;;;;;14.54;100.00;101067.50;6204069;23;20016;-68
2023/08/14 01:30:44;;;;;;;6.32;5.82;;;;;;;14.41;100.00;101051.56;6202742;23;20531;-67
2023/08/14 01:33:11;;;;;;;5.93;5.50;;;;;;;14.51;100.00;101067.69;6205456;23;20035;-68
2023/08/14 01:36:22;;;;;;;6.28;5.78;;;;;;;14.44;100.00;101058.47;6179457;23;20024;-67
2023/08/14 01:39:04;;;;;;;8.60;5.88;;;;;;;13.27;100.00;100883.56;6054737;23;20084;-67
2023/08/14 01:41:44;;;;;;;6.32;5.93;;;;;;;14.38;100.00;101064.13;6032528;23;20085;-67
2023/08/14 01:44:17;;;;;;;6.32;5.80;;;;;;;13.31;100.00;100877.19;6159228;23;20024;-67
2023/08/14 01:46:47;;;;;;;5.93;5.47;;;;;;;14.26;100.00;101041.97;6200654;23;20020;-67
2023/08/14 01:49:16;;;;;;;5.80;5.40;;;;;;;14.28;100.00;101050.66;6175253;23;20022;-67
2023/08/14 01:51:45;;;;;;;5.80;5.40;;;;;;;13.90;100.00;100991.38;6204803;23;20061;-68
2023/08/14 01:54:11;;;;;;;6.35;5.85;;;;;;;14.10;100.00;101013.03;6200976;23;20387;-72
2023/08/14 01:56:38;;;;;;;6.03;5.63;;;;;;;13.60;100.00;100936.06;6202417;23;20028;-68
2023/08/14 01:59:05;;;;;;;6.38;5.88;;;;;;;14.08;100.00;101020.22;6206036;23;20032;-68
2023/08/14 02:01:31;;;;;;;6.13;5.60;;;;;;;13.97;100.00;101007.66;6203344;23;20041;-68
2023/08/14 02:03:57;;;;;;;6.53;6.03;;;;;;;14.22;100.00;101048.41;6201380;23;20034;-68
2023/08/14 02:06:24;;;;;;;6.00;5.50;;;;;;;14.18;100.00;101041.63;6149121;23;20013;-68
2023/08/14 02:08:50;;;;;;;6.47;5.97;;;;;;;14.10;100.00;101039.44;6198979;23;20035;-68
2023/08/14 02:11:17;;;;;;;5.40;5.10;;;;;;;14.04;100.00;101037.19;6202606;23;20103;-68
2023/08/14 02:13:43;;;;;;;6.35;5.22;;;;;;;13.69;100.00;100988.25;6207409;23;20080;-68
2023/08/14 02:16:10;;;;;;;5.38;5.07;;;;;;;13.79;100.00;101007.03;6174217;23;20030;-68
2023/08/14 02:18:36;;;;;;;6.03;5.40;;;;;;;13.91;100.00;101027.38;6202666;23;20552;-69
2023/08/14 02:21:03;;;;;;;5.78;5.38;;;;;;;13.75;100.00;101010.75;6206554;23;20031;-68
2023/08/14 02:23:30;;;;;;;6.80;5.57;;;;;;;13.77;100.00;101016.78;6176148;23;20085;-68
2023/08/14 02:25:56;;;;;;;6.03;5.53;;;;;;;13.55;100.00;100990.84;6197661;23;20018;-68
2023/08/14 02:28:23;;;;;;;5.50;5.10;;;;;;;13.48;100.00;100993.03;6156027;23;20725;-69
2023/08/14 02:30:49;;;;;;;8.45;5.90;;;;;;;13.80;100.00;101029.81;6201533;23;20076;-68
2023/08/14 02:33:16;;;;;;;5.80;5.30;;;;;;;13.04;100.00;100906.03;6204516;23;20031;-67
2023/08/14 02:35:42;;;;;;;6.60;5.38;;;;;;;12.18;100.00;100788.13;6195087;23;20738;-67
2023/08/14 02:38:09;;;;;;;6.00;5.60;;;;;;;12.86;100.00;100890.34;6141067;23;20382;-68
2023/08/14 02:40:37;;;;;;;6.05;5.65;;;;;;;13.81;100.00;101049.13;6202739;23;20016;-67
2023/08/14 02:43:04;;;;;;;5.72;5.40;;;;;;;12.70;100.00;100861.44;6198128;23;20537;-66
2023/08/14 02:45:30;;;;;;;5.50;5.05;;;;;;;13.68;100.00;101020.84;6203333;23;20027;-67
2023/08/14 02:47:57;;;;;;;7.60;5.50;;;;;;;12.71;100.00;100873.69;6202352;23;20429;-67
2023/08/14 02:50:24;;;;;;;6.03;5.50;;;;;;;13.72;100.00;101042.59;6172302;23;20116;-67
2023/08/14 02:52:51;;;;;;;6.18;5.50;;;;;;;13.54;100.00;101005.00;6200000;23;20027;-68
2023/08/14 02:55:17;;;;;;;5.88;5.57;;;;;;;13.77;100.00;101035.25;6168031;23;20040;-68
2023/08/14 02:57:43;;;;;;;5.68;5.38;;;;;;;13.62;100.00;101017.72;6199099;23;20095;-67
2023/08/14 03:00:10;;;;;;;5.80;5.50;;;;;;;12.78;100.00;100906.59;6175977;23;20024;-69
2023/08/14 03:02:37;;;;;;;7.55;5.50;;;;;;;13.25;100.00;100977.69;6173358;23;20827;-68
2023/08/14 03:05:04;;;;;;;6.72;6.15;;;;;;;13.51;100.00;101021.84;6198974;23;20083;-68
2023/08/14 03:07:30;;;;;;;6.53;5.40;;;;;;;13.49;100.00;101029.00;6197749;23;20030;-68
2023/08/14 03:09:57;;;;;;;5.50;5.20;;;;;;;12.25;100.00;100828.09;6176181;23;20091;-68
2023/08/14 03:12:23;;;;;;;5.82;5.43;;;;;;;12.40;100.00;100847.44;6174698;23;20385;-68
2023/08/14 03:14:50;;;;;;;6.38;5.90;;;;;;;13.34;100.00;101012.28;6175095;23;20667;-68
2023/08/14 03:17:16;;;;;;;6.10;5.60;;;;;;;13.11;100.00;100976.72;6201012;23;20058;-69
2023/08/14 03:19:43;;;;;;;5.85;5.22;;;;;;;11.88;100.00;100772.28;6174760;23;20100;-68
2023/08/14 03:22:09;;;;;;;7.15;6.53;;;;;;;13.44;100.00;101043.41;6195716;23;20088;-68
2023/08/14 03:24:36;;;;;;;5.35;5.05;;;;;;;12.49;100.00;100899.56;6178803;23;20071;-68
2023/08/14 03:27:02;;;;;;;5.70;5.40;;;;;;;12.03;100.00;100852.13;6199169;23;20012;-69
2023/08/14 03:29:29;;;;;;;5.63;5.22;;;;;;;13.22;100.00;101036.69;6149415;23;20095;-68
2023/08/14 03:31:57;;;;;;;5.57;5.18;;;;;;;13.17;100.00;101031.72;6171564;23;20745;-68
2023/08/14 03:34:24;;;;;;;5.68;5.30;;;;;;;13.25;100.00;101051.47;6170625;23;20642;-70
2023/08/14 03:36:50;;;;;;;6.05;5.65;;;;;;;13.28;100.00;101062.69;6169106;23;20087;-67
2023/08/14 03:39:17;;;;;;;6.05;5.65;;;;;;;12.17;100.00;100889.91;6173590;23;20576;-70
2023/08/14 03:41:44;;;;;;;5.80;5.40;;;;;;;13.19;100.00;101044.81;6192113;23;20020;-67
2023/08/14 03:44:11;;;;;;;7.50;6.90;;;;;;;13.29;100.00;101064.44;6192154;23;20020;-67
2023/08/14 03:46:37;;;;;;;8.80;5.43;;;;;;;13.15;100.00;101030.09;6173238;23;20059;-68
2023/08/14 03:49:05;;;;;;;6.72;5.72;;;;;;;13.31;100.00;101067.84;6173810;23;20023;-68
2023/08/14 03:51:31;;;;;;;5.95;5.45;;;;;;;13.18;100.00;101056.25;6205827;23;20020;-67
2023/08/14 03:53:58;;;;;;;7.80;5.30;;;;;;;13.29;100.00;101089.91;6200413;23;20040;-67
2023/08/14 03:56:24;;;;;;;5.72;5.28;;;;;;;13.27;100.00;101063.66;6202281;23;20030;-67
2023/08/14 03:58:51;;;;;;;6.13;5.68;;;;;;;13.29;100.00;101058.28;6172221;23;20032;-67
2023/08/14 04:01:17;;;;;;;5.70;5.30;;;;;;;13.24;100.00;101055.06;6199725;23;20792;-67
2023/08/14 04:03:45;;;;;;;5.30;5.00;;;;;;;13.25;100.00;101064.66;6146736;23;20459;-67
2023/08/14 04:06:14;;;;;;;5.82;5.35;;;;;;;13.22;100.00;101052.50;6202795;23;20060;-68
2023/08/14 04:08:40;;;;;;;6.07;5.68;;;;;;;13.21;100.00;101049.97;6199320;23;20556;-68
2023/08/14 04:11:07;;;;;;;7.95;5.22;;;;;;;13.21;100.00;101052.59;6199968;23;20075;-68
2023/08/14 04:13:33;;;;;;;5.57;5.20;;;;;;;13.11;100.00;101037.34;6168430;23;20079;-67
2023/08/14 04:16:00;;;;;;;6.43;5.68;;;;;;;13.25;100.00;101048.84;6201147;23;20088;-68
2023/08/14 04:18:28;;;;;;;6.40;5.63;;;;;;;13.22;100.00;101049.03;6199166;23;20620;-68
2023/08/14 04:20:55;;;;;;;6.70;5.50;;;;;;;13.06;100.00;101036.72;6200161;23;20026;-66
2023/08/14 04:23:23;;;;;;;5.75;5.38;;;;;;;13.25;100.00;101059.38;6167184;23;20091;-66
2023/08/14 04:25:51;;;;;;;5.70;5.40;;;;;;;13.27;100.00;101065.41;6197344;23;20028;-67
2023/08/14 04:28:18;;;;;;;6.10;5.65;;;;;;;13.34;100.00;101069.44;6195166;23;20020;-68
2023/08/14 04:30:44;;;;;;;5.65;5.20;;;;;;;13.49;100.00;101071.19;6168705;23;20020;-67
2023/08/14 04:33:11;;;;;;;5.80;5.40;;;;;;;13.69;100.00;101077.94;6172350;23;20026;-66
2023/08/14 04:35:40;;;;;;;6.47;5.65;;;;;;;13.88;100.00;101072.41;6201147;23;20139;-66
2023/08/14 04:38:06;;;;;;;5.97;5.57;;;;;;;12.96;100.00;100861.69;6198154;23;20647;-68
2023/08/14 04:40:33;;;;;;;6.57;6.03;;;;;;;13.54;100.00;100918.81;6200081;23;20071;-68
2023/08/14 04:42:59;;;;;;;7.10;5.55;;;;;;;14.49;100.00;101046.69;6196540;23;20020;-66
2023/08/14 04:45:26;;;;;;;6.10;5.60;;;;;;;14.52;100.00;101045.63;6199081;23;20092;-68
2023/08/14 04:47:52;;;;;;;6.47;5.97;;;;;;;14.40;100.00;101031.41;6194527;23;20072;-66
2023/08/14 04:50:22;;;;;;;5.50;5.20;;;;;;;13.32;100.00;100855.19;6164938;23;20021;-66
2023/08/14 04:52:49;;;;;;;6.00;5.60;;;;;;;14.01;100.00;100961.69;6201536;23;20103;-67
2023/08/14 04:55:16;;;;;;;5.53;5.20;;;;;;;14.44;100.00;101021.50;6167852;23;20047;-67
2023/08/14 04:57:42;;;;;;;5.78;5.40;;;;;;;14.85;100.00;101031.22;6168938;23;20619;-66
2023/08/14 05:00:09;;;;;;;5.80;5.40;;;;;;;14.71;100.00;100914.09;6173867;23;20114;-66
2023/08/14 05:02:36;;;;;;;8.93;5.78;;;;;;;15.15;100.00;100870.63;6200087;23;20016;-68
2023/08/14 05:05:03;;;;;;;5.85;5.45;;;;;;;16.04;100.00;100883.88;6203667;23;20039;-67
2023/08/14 05:07:29;;;;;;;6.00;5.50;;;;;;;17.40;100.00;100975.38;6198998;23;20096;-66
2023/08/14 05:09:56;;;;;;;5.88;5.50;;;;;;;17.77;100.00;100915.00;6174975;23;20067;-66
2023/08/14 05:12:22;;;;;;;7.25;6.30;;;;;;;17.80;100.00;100813.00;6197461;23;20087;-66
2023/08/14 05:14:52;;;;;;;6.60;6.10;;;;;;;17.03;97.48;100607.81;6195392;23;20096;-67
2023/08/14 05:17:18;;;;;;;6.38;5.97;;;;;;;17.83;94.41;100711.91;6166788;23;20048;-67
2023/08/14 05:19:45;;;;;;;6.47;5.80;;;;;;;18.33;94.60;100736.09;6177083;23;20016;-66
2023/08/14 05:22:11;;;;;;;6.78;6.25;;;;;;;18.14;91.60;100599.53;6176101;23;20095;-67
2023/08/14 05:24:38;;;;;;;7.18;6.50;;;;;;;18.38;88.13;100563.84;6201874;23;20465;-67
2023/08/14 05:27:04;;;;;;;6.35;5.95;;;;;;;19.45;86.14;100669.66;6201189;23;20020;-67
2023/08/14 05:29:31;;;;;;;6.35;5.95;;;;;;;19.63;84.80;100644.03;6171644;23;20130;-67
2023/08/14 05:31:59;;;;;;;6.38;5.95;;;;;;;19.53;83.18;100614.75;6197011;23;20040;-67
2023/08/14 05:34:26;;;;;;;6.90;6.30;;;;;;;19.92;83.94;100657.38;6197213;23;20031;-66
2023/08/14 05:36:53;;;;;;;6.60;6.10;;;;;;;20.08;82.84;100639.94;6174206;23;20073;-67
2023/08/14 05:39:19;;;;;;;6.75;6.28;;;;;;;20.37;81.97;100636.38;6194609;23;20075;-66
2023/08/14 05:41:45;;;;;;;6.55;6.10;;;;;;;20.01;80.29;100573.09;6198833;23;20039;-67
2023/08/14 05:44:12;;;;;;;7.18;6.30;;;;;;;19.36;79.40;100463.75;6146661;23;20048;-67
2023/08/14 05:46:42;;;;;;;6.38;5.97;;;;;;;20.27;80.22;100594.59;6195711;23;20044;-67
2023/08/14 05:49:13;;;;;;;7.15;6.40;;;;;;;20.23;80.27;100587.06;6175662;23;20545;-66
2023/08/14 05:51:40;;;;;;;6.75;6.20;;;;;;;20.22;80.58;100623.50;6172542;23;20094;-66
2023/08/14 05:54:06;;;;;;;6.45;6.05;;;;;;;20.55;80.37;100602.66;6201598;23;20031;-66
2023/08/14 05:56:33;;;;;;;7.85;6.35;;;;;;;20.62;79.49;100589.59;6205594;23;20195;-66
2023/08/14 05:58:59;;;;;;;6.60;6.10;;;;;;;20.88;79.25;100621.72;6179799;23;20028;-66
2023/08/14 06:01:26;;;;;;;6.65;6.20;;;;;;;20.78;78.81;100588.94;6175920;23;20665;-67
2023/08/14 06:03:54;;;;;;;6.70;6.20;;;;;;;19.97;78.60;100440.34;6203200;23;20500;-66
2023/08/14 06:06:21;;;;;;;6.80;6.30;;;;;;;20.10;78.89;100539.41;6202189;23;20783;-68
2023/08/14 06:08:48;;;;;;;7.07;6.57;;;;;;;19.78;81.32;100577.06;6167214;23;20451;-65
2023/08/14 06:11:14;;;;;;;8.32;6.95;;;;;;;19.44;83.37;100594.28;6197608;23;20084;-66
2023/08/14 06:13:41;;;;;;;6.68;6.25;;;;;;;18.44;85.75;100512.81;6199193;23;20024;-67
2023/08/14 06:16:07;;;;;;;6.43;5.93;;;;;;;18.91;87.85;100624.75;6199251;23;20106;-67
2023/08/14 06:18:34;;;;;;;7.20;6.60;;;;;;;19.09;88.39;100678.13;6174405;23;20024;-65
2023/08/14 06:21:01;;;;;;;7.10;6.40;;;;;;;19.17;88.63;100695.25;6176429;23;20004;-66
2023/08/14 06:23:27;;;;;;;6.90;6.28;;;;;;;19.17;88.51;100680.13;6199623;23;20098;-66
2023/08/14 06:25:54;;;;;;;6.88;6.38;;;;;;;18.93;89.15;100702.56;6206269;23;20087;-67
2023/08/14 06:28:20;;;;;;;7.38;6.70;;;;;;;18.90;90.97;100715.28;6190445;23;20051;-66
2023/08/14 06:30:49;;;;;;;7.00;6.53;;;;;;;18.82;93.30;100737.25;6197743;23;20024;-67
2023/08/14 06:33:15;;;;;;;6.93;6.43;;;;;;;18.68;93.42;100708.31;6198703;23;20430;-67
2023/08/14 06:35:42;;;;;;;6.80;6.20;;;;;;;18.46;92.26;100626.91;6175596;23;20522;-67
2023/08/14 06:38:09;;;;;;;6.50;6.00;;;;;;;19.48;91.54;100755.41;6170100;23;20497;-67
2023/08/14 06:40:35;;;;;;;6.93;6.43;;;;;;;19.60;89.30;100729.50;6172135;23;20073;-66
2023/08/14 06:43:03;;;;;;;6.82;6.32;;;;;;;19.57;88.19;100678.38;6200461;23;20047;-66
2023/08/14 06:45:29;;;;;;;6.75;6.25;;;;;;;19.76;85.16;100664.25;6197613;23;20022;-66
2023/08/14 06:47:56;;;;;;;8.65;6.80;;;;;;;19.62;84.13;100639.66;6199163;23;20023;-66
2023/08/14 06:50:23;;;;;;;7.13;6.38;;;;;;;19.56;84.29;100626.94;6174092;23;20468;-67
2023/08/14 06:52:49;;;;;;;6.70;6.30;;;;;;;19.76;84.41;100651.75;6196034;23;20029;-66
2023/08/14 06:55:16;;;;;;;6.82;6.35;;;;;;;19.45;82.33;100544.56;6203491;23;20027;-67
2023/08/14 06:57:42;;;;;;;6.75;6.25;;;;;;;20.29;82.04;100653.94;6198277;23;20036;-67
2023/08/14 07:00:12;;;;;;;7.53;6.07;;;;;;;19.31;79.49;100450.06;6200845;23;20027;-67
2023/08/14 07:02:39;;;;;;;6.93;6.38;;;;;;;20.20;79.98;100582.00;6198003;23;20622;-66
2023/08/14 07:05:09;;;;;;;6.30;5.82;;;;;;;20.81;78.54;100615.31;6179167;23;20036;-66
2023/08/14 07:07:37;;;;;;;6.85;5.90;;;;;;;20.80;77.43;100571.78;6197471;23;20032;-66
2023/08/14 07:10:08;;;;;;;15.95;14.73;;;;;;;21.10;75.91;100562.59;6089734;23;20457;-68
2023/08/14 07:12:34;;;;;;;6.88;5.90;;;;;;;20.70;76.59;100547.00;6176219;23;20012;-68
2023/08/14 07:15:01;;;;;;;6.40;6.00;;;;;;;19.61;78.22;100445.50;6173438;23;20098;-67
2023/08/14 07:17:28;;;;;;;6.70;6.28;;;;;;;20.64;79.52;100627.59;6199327;23;20009;-67
2023/08/14 07:19:55;;;;;;;6.38;5.85;;;;;;;19.47;77.06;100366.94;6170346;23;20643;-67
2023/08/14 07:22:21;;;;;;;6.45;6.05;;;;;;;20.90;75.91;100551.22;6199730;23;20039;-67
2023/08/14 07:24:48;;;;;;;6.65;6.05;;;;;;;20.06;74.62;100396.81;6173961;23;20047;-67
2023/08/14 07:27:14;;;;;;;6.45;6.05;;;;;;;19.87;74.64;100384.47;6199633;23;20016;-67
2023/08/14 07:29:41;;;;;;;6.53;6.05;;;;;;;20.82;75.20;100519.13;6180047;23;20032;-68
2023/08/14 07:32:10;;;;;;;6.50;6.10;;;;;;;21.08;74.42;100537.06;6202422;23;20023;-68
2023/08/14 07:34:37;;;;;;;10.30;7.18;;;;;;;21.16;73.38;100533.63;6203512;23;20047;-67
2023/08/14 07:37:04;;;;;;;6.63;6.03;;;;;;;21.26;73.21;100511.19;6201579;23;20024;-68
2023/08/14 07:39:30;;;;;;;6.63;6.20;;;;;;;20.92;72.63;100431.88;6200456;23;20281;-67
2023/08/14 07:41:57;;;;;;;6.40;6.00;;;;;;;21.11;71.22;100380.16;6197671;23;20428;-66
2023/08/14 07:44:23;;;;;;;6.82;6.32;;;;;;;21.82;71.81;100500.28;6197806;23;20028;-66
2023/08/14 07:46:50;;;;;;;6.55;6.13;;;;;;;21.98;69.89;100472.81;6174331;23;20036;-66
2023/08/14 07:49:16;;;;;;;6.90;6.25;;;;;;;22.07;71.17;100517.28;6199234;23;20180;-66
2023/08/14 07:51:43;;;;;;;7.88;6.35;;;;;;;21.84;70.70;100479.59;6201144;23;20088;-66
2023/08/14 07:54:09;;;;;;;6.80;6.30;;;;;;;21.27;70.01;100352.75;6174645;23;21233;-68
2023/08/14 07:56:36;;;;;;;6.93;6.43;;;;;;;22.33;69.12;100517.28;6150717;23;20447;-67
2023/08/14 07:59:04;;;;;;;6.82;6.20;;;;;;;22.44;68.84;100516.13;6174994;23;20028;-69
2023/08/14 08:01:31;;;;;;;6.78;6.35;;;;;;;21.32;70.53;100408.31;6200450;23;20030;-65
2023/08/14 08:03:59;;;;;;;6.90;6.20;;;;;;;22.38;70.32;100579.13;6177526;23;20023;-66
2023/08/14 08:06:25;;;;;;;7.05;6.45;;;;;;;21.63;68.53;100398.03;6173317;23;20562;-66
2023/08/14 08:08:52;;;;;;;7.00;6.50;;;;;;;22.41;67.25;100452.28;6198196;23;20027;-67
2023/08/14 08:11:20;;;;;;;6.30;5.90;;;;;;;22.35;65.43;100372.72;6168656;23;20035;-67
2023/08/14 08:13:47;;;;;;;6.38;5.85;;;;;;;21.87;66.83;100365.25;6195538;23;20012;-67
2023/08/14 08:16:13;;;;;;;6.40;6.00;;;;;;;22.53;65.35;100418.88;6201258;23;20466;-67
2023/08/14 08:18:40;;;;;;;6.85;6.35;;;;;;;21.75;66.55;100347.84;6170949;23;20112;-67
2023/08/14 08:21:07;;;;;;;6.47;6.03;;;;;;;22.58;66.72;100506.66;6197761;23;20077;-67
2023/08/14 08:23:33;;;;;;;6.80;6.20;;;;;;;22.76;66.44;100531.44;6170894;23;20025;-67
2023/08/14 08:26:00;;;;;;;9.00;6.18;;;;;;;22.79;66.25;100508.88;6197236;23;20028;-67
2023/08/14 08:28:26;;;;;;;7.03;5.80;;;;;;;23.05;65.79;100548.91;6197981;23;20112;-67
2023/08/14 08:30:53;;;;;;;6.18;5.88;;;;;;;23.37;65.18;100547.28;6172036;23;20433;-68
2023/08/14 08:33:20;;;;;;;6.53;6.13;;;;;;;22.25;64.43;100338.97;6201305;23;20579;-68
2023/08/14 08:35:53;;;;;;;6.82;6.22;;;;;;;23.18;63.51;100449.38;6175428;23;20008;-66
2023/08/14 08:38:19;;;;;;;7.38;6.70;;;;;;;22.64;62.27;100338.31;6200119;23;20694;-67
2023/08/14 08:40:48;;;;;;;6.72;6.32;;;;;;;23.28;63.37;100482.19;6178668;23;20028;-66
2023/08/14 08:43:16;;;;;;;7.00;5.82;;;;;;;23.40;64.32;100520.16;6166618;23;20057;-67
2023/08/14 08:45:49;;;;;;;6.40;5.90;;;;;;;22.72;63.49;100395.50;6200746;23;20035;-66
2023/08/14 08:48:20;;;;;;;7.00;6.40;;;;;;;23.40;63.04;100485.34;6205514;23;20019;-66
2023/08/14 08:50:49;;;;;;;7.13;6.53;;;;;;;23.52;62.87;100497.38;6199199;23;20024;-66
2023/08/14 08:53:20;;;;;;;6.60;6.00;;;;;;;23.46;64.31;100523.00;6168266;23;20058;-67
2023/08/14 08:55:50;;;;;;;6.57;6.18;;;;;;;23.44;63.77;100522.34;6170713;23;20030;-67
2023/08/14 08:58:17;;;;;;;6.78;6.15;;;;;;;22.34;63.88;100363.88;6173955;23;20072;-67
2023/08/14 09:00:44;;;;;;;7.18;6.47;;;;;;;23.38;63.76;100528.38;6207734;23;20170;-67
2023/08/14 09:03:12;;;;;;;6.80;6.10;;;;;;;22.58;63.86;100380.94;6182175;23;20084;-66
2023/08/14 09:05:43;;;;;;;6.90;5.93;;;;;;;23.69;63.65;100539.22;6206355;23;20497;-66
2023/08/14 09:08:09;;;;;;;6.75;6.25;;;;;;;23.64;62.65;100492.50;6206216;23;20110;-66
2023/08/14 09:10:36;;;;;;;7.40;6.78;;;;;;;23.50;62.66;100481.47;6200290;23;20743;-67
2023/08/14 09:13:02;;;;;;;6.53;6.13;;;;;;;22.65;62.89;100344.50;6175824;23;20051;-67
2023/08/14 09:15:39;;;;;;;6.97;6.18;;;;;;;23.78;62.88;100523.16;6202202;23;20035;-67
2023/08/14 09:18:06;;;;;;;6.53;6.13;;;;;;;23.42;62.78;100457.38;6201493;23;20004;-67
2023/08/14 09:20:33;;;;;;;6.60;6.00;;;;;;;23.80;63.30;100546.09;6193966;23;20024;-67
2023/08/14 09:23:00;;;;;;;6.40;5.90;;;;;;;23.95;60.88;100446.22;6195404;23;20072;-67
2023/08/14 09:25:27;;;;;;;6.82;6.22;;;;;;;24.06;60.30;100438.63;6203233;23;20036;-67
2023/08/14 09:27:57;;;;;;;6.25;5.95;;;;;;;24.43;59.71;100442.47;6168370;23;21316;-67
2023/08/14 09:30:26;;;;;;;6.82;6.25;;;;;;;24.16;60.13;100413.47;6175889;23;20024;-67
2023/08/14 09:32:53;;;;;;;12.27;6.35;;;;;;;24.14;59.76;100392.19;6197894;23;20023;-67
2023/08/14 09:35:20;;;;;;;6.38;5.90;;;;;;;23.87;59.81;100412.25;6183313;23;20032;-67
2023/08/14 09:37:47;;;;;;;6.60;6.00;;;;;;;24.00;59.64;100393.78;6170920;23;20101;-67
2023/08/14 09:40:16;;;;;;;6.03;5.63;;;;;;;24.24;59.12;100418.78;6136329;23;20537;-67
2023/08/14 09:42:47;;;;;;;6.38;5.97;;;;;;;23.56;60.09;100350.56;6174890;23;20039;-67
2023/08/14 09:45:17;;;;;;;6.13;5.73;;;;;;;24.39;58.53;100398.22;6203592;23;20088;-67
2023/08/14 09:47:45;;;;;;;6.88;6.20;;;;;;;24.37;58.24;100397.56;6198797;23;20588;-67
2023/08/14 09:50:17;;;;;;;7.88;6.88;;;;;;;24.26;58.50;100379.22;6198641;23;20027;-67
2023/08/14 09:52:44;;;;;;;6.40;6.00;;;;;;;24.56;57.90;100377.53;6174506;23;20600;-67
2023/08/14 09:55:14;;;;;;;6.15;5.75;;;;;;;25.17;55.34;100347.94;6207893;23;20493;-67
2023/08/14 09:57:41;;;;;;;6.35;5.95;;;;;;;25.48;55.85;100409.59;6173960;23;20097;-67
2023/08/14 10:00:08;;;;;;;7.13;6.60;;;;;;;25.09;55.51;100322.00;6200048;23;20087;-67
2023/08/14 10:02:37;;;;;;;6.75;6.18;;;;;;;25.29;54.68;100310.75;6174789;23;20015;-66
2023/08/14 10:05:09;;;;;;;6.95;6.45;;;;;;;25.72;55.19;100410.34;6204618;23;20036;-66
2023/08/14 10:07:38;;;;;;;6.90;6.40;;;;;;;26.05;54.26;100426.91;6201926;23;20008;-66
2023/08/14 10:10:07;;;;;;;6.50;6.10;;;;;;;25.97;54.98;100413.59;6204217;23;20621;-67
2023/08/14 10:12:41;;;;;;;6.35;5.95;;;;;;;25.82;52.39;100260.34;6170370;23;20013;-67
2023/08/14 10:15:15;;;;;;;6.63;6.00;;;;;;;25.45;54.17;100317.78;6199951;23;20085;-67
2023/08/14 10:17:49;;;;;;;6.97;6.30;;;;;;;25.51;54.83;100391.44;6204178;23;20012;-67
2023/08/14 10:20:17;;;;;;;6.93;6.20;;;;;;;25.59;54.93;100415.53;6204507;23;20032;-67
2023/08/14 10:22:46;;;;;;;8.02;7.53;;;;;;;25.44;54.56;100385.97;6189735;23;20126;-67
2023/08/14 10:25:14;;;;;;;6.82;6.32;;;;;;;25.78;53.33;100363.91;6182708;23;21269;-66
2023/08/14 10:27:41;;;;;;;6.80;6.30;;;;;;;24.95;52.97;100225.34;6198843;23;20019;-67
2023/08/14 10:30:08;;;;;;;6.93;6.20;;;;;;;25.19;52.76;100267.19;6197317;23;20022;-66
2023/08/14 10:32:36;;;;;;;6.75;6.07;;;;;;;26.26;52.92;100417.25;6174183;23;20532;-66
2023/08/14 10:35:04;;;;;;;7.07;6.47;;;;;;;26.57;51.71;100389.19;6190602;23;20075;-68
2023/08/14 10:37:48;;;;;;;7.90;6.50;;;;;;;25.14;50.43;100122.75;6204224;23;20060;-68
2023/08/14 10:40:34;;;;;;;6.50;6.10;;;;;;;25.98;51.22;100350.72;6203107;23;20673;-68
2023/08/14 10:43:01;;;;;;;7.95;6.30;;;;;;;25.28;50.46;100234.72;6203006;23;20222;-67
2023/08/14 10:45:28;;;;;;;6.63;5.80;;;;;;;26.22;51.69;100427.56;6187929;23;20079;-67
2023/08/14 10:48:07;;;;;;;6.43;6.03;;;;;;;26.02;52.43;100421.94;6173619;23;20008;-67
2023/08/14 10:50:34;;;;;;;6.70;6.15;;;;;;;25.32;53.81;100364.13;6156845;23;20484;-68
2023/08/14 10:53:05;;;;;;;7.28;6.78;;;;;;;26.10;52.98;100455.97;6193144;23;20035;-66
2023/08/14 10:55:41;;;;;;;6.28;5.88;;;;;;;25.95;51.55;100371.78;6173491;23;20433;-66
2023/08/14 10:58:36;;;;;;;6.40;5.90;;;;;;;25.68;51.16;100336.50;6170130;23;20073;-66
2023/08/14 11:01:20;;;;;;;6.47;5.95;;;;;;;25.56;53.31;100459.75;6164411;23;20027;-67
2023/08/14 11:04:04;;;;;;;6.70;6.10;;;;;;;24.72;51.73;100226.28;6205871;23;20124;-67
2023/08/14 11:07:22;;;;;;;6.55;6.10;;;;;;;25.44;52.15;100394.88;6204095;23;20025;-69
2023/08/14 11:09:49;;;;;;;6.78;6.18;;;;;;;25.65;53.25;100484.66;6200483;23;20024;-67
2023/08/14 11:12:15;;;;;;;6.35;5.95;;;;;;;25.75;52.62;100439.53;6198288;23;20019;-69
2023/08/14 11:14:42;;;;;;;6.60;6.07;;;;;;;25.99;52.62;100469.88;6200185;23;20416;-68
2023/08/14 11:17:10;;;;;;;6.70;6.20;;;;;;;26.17;52.54;100497.22;6171095;23;20650;-67
2023/08/14 11:19:37;;;;;;;5.78;5.43;;;;;;;25.36;52.13;100324.25;6186502;23;20044;-68
2023/08/14 11:22:05;;;;;;;6.28;5.82;;;;;;;26.12;51.81;100456.59;6203232;23;20034;-67
2023/08/14 11:24:36;;;;;;;6.40;5.90;;;;;;;25.66;51.77;100363.53;6205331;23;20043;-69
2023/08/14 11:27:03;;;;;;;6.97;6.32;;;;;;;25.39;50.85;100287.13;6201565;23;20019;-68